sensor_id;sensor_type;location;lat;lon;timestamp;pressure;altitude;pressure_sealevel;temperature;humidity
48386;BME280;34644;47.964;7.982;2023-10-08T00:06:57;97635.53;;;18.98;50.59
48386;BME280;34644;47.964;7.982;2023-10-08T00:13:58;97626.72;;;18.98;50.51
48386;BME280;34644;47.964;7.982;2023-10-08T00:21:01;97625.91;;;18.97;50.62
48386;BME280;34644;47.964;7.982;2023-10-08T00:28:08;97632.34;;;18.96;50.46
48386;BME280;34644;47.964;7.982;2023-10-08T00:35:11;97629.66;;;18.96;50.51
48386;BME280;34644;47.964;7.982;2023-10-08T00:42:13;97628.84;;;18.96;50.36
48386;BME280;34644;47.964;7.982;2023-10-08T00:49:21;97615.78;;;18.94;50.33
48386;BME280;34644;47.964;7.982;2023-10-08T00:56:22;97602.44;;;18.94;50.41
48386;BME280;34644;47.964;7.982;2023-10-08T01:03:26;97605.09;;;18.94;50.39
48386;BME280;34644;47.964;7.982;2023-10-08T01:10:27;97600.81;;;18.93;50.32
48386;BME280;34644;47.964;7.982;2023-10-08T01:17:27;97592.78;;;18.93;50.47
48386;BME280;34644;47.964;7.982;2023-10-08T01:24:32;97581.31;;;18.93;50.39
48386;BME280;34644;47.964;7.982;2023-10-08T01:31:36;97590.38;;;18.92;50.26
48386;BME280;34644;47.964;7.982;2023-10-08T01:38:38;97582.38;;;18.92;50.69
48386;BME280;34644;47.964;7.982;2023-10-08T01:45:39;97570.06;;;18.91;50.53
48386;BME280;34644;47.964;7.982;2023-10-08T01:52:41;97583.44;;;18.91;50.60
48386;BME280;34644;47.964;7.982;2023-10-08T01:59:41;97572.75;;;18.91;50.54
48386;BME280;34644;47.964;7.982;2023-10-08T02:06:41;97571.94;;;18.90;50.38
48386;BME280;34644;47.964;7.982;2023-10-08T02:13:44;97565.00;;;18.89;50.52
48386;BME280;34644;47.964;7.982;2023-10-08T02:20:47;97577.56;;;18.89;50.52
48386;BME280;34644;47.964;7.982;2023-10-08T02:27:48;97579.44;;;18.88;50.66
48386;BME280;34644;47.964;7.982;2023-10-08T02:34:49;97578.63;;;18.88;50.41
48386;BME280;34644;47.964;7.982;2023-10-08T02:41:50;97575.94;;;18.88;50.89
48386;BME280;34644;47.964;7.982;2023-10-08T02:48:50;97573.28;;;18.88;50.59
48386;BME280;34644;47.964;7.982;2023-10-08T02:55:52;97571.69;;;18.87;50.64
48386;BME280;34644;47.964;7.982;2023-10-08T03:02:53;97565.53;;;18.86;50.63
48386;BME280;34644;47.964;7.982;2023-10-08T03:09:53;97570.06;;;18.86;50.78
48386;BME280;34644;47.964;7.982;2023-10-08T03:17:03;97562.06;;;18.86;50.67
48386;BME280;34644;47.964;7.982;2023-10-08T03:24:08;97560.44;;;18.85;50.75
48386;BME280;34644;47.964;7.982;2023-10-08T03:31:29;97565.00;;;18.84;50.71
48386;BME280;34644;47.964;7.982;2023-10-08T03:38:51;97558.81;;;18.84;50.85
48386;BME280;34644;47.964;7.982;2023-10-08T03:45:51;97556.97;;;18.84;50.65
48386;BME280;34644;47.964;7.982;2023-10-08T03:52:53;97554.53;;;18.83;50.58
48386;BME280;34644;47.964;7.982;2023-10-08T03:59:55;97552.94;;;18.81;50.64
48386;BME280;34644;47.964;7.982;2023-10-08T04:07:00;97566.28;;;18.81;50.53
48386;BME280;34644;47.964;7.982;2023-10-08T04:14:21;97557.47;;;18.81;50.61
48386;BME280;34644;47.964;7.982;2023-10-08T04:21:22;97553.19;;;18.80;50.71
48386;BME280;34644;47.964;7.982;2023-10-08T04:28:22;97549.72;;;18.79;50.86
48386;BME280;34644;47.964;7.982;2023-10-08T04:35:22;97560.41;;;18.79;50.86
48386;BME280;34644;47.964;7.982;2023-10-08T04:42:26;97562.28;;;18.79;50.83
48386;BME280;34644;47.964;7.982;2023-10-08T04:49:27;97558.00;;;18.78;50.94
48386;BME280;34644;47.964;7.982;2023-10-08T04:56:30;97552.66;;;18.78;50.85
48386;BME280;34644;47.964;7.982;2023-10-08T05:03:33;97564.13;;;18.78;50.60
48386;BME280;34644;47.964;7.982;2023-10-08T05:10:44;97547.31;;;18.78;50.96
48386;BME280;34644;47.964;7.982;2023-10-08T05:18:01;97553.97;;;18.75;50.94
48386;BME280;34644;47.964;7.982;2023-10-08T05:25:10;97550.50;;;18.75;50.89
48386;BME280;34644;47.964;7.982;2023-10-08T05:32:16;97553.19;;;18.75;51.00
48386;BME280;34644;47.964;7.982;2023-10-08T05:39:35;97541.72;;;18.74;51.08
48386;BME280;34644;47.964;7.982;2023-10-08T05:46:54;97534.75;;;18.73;51.05
48386;BME280;34644;47.964;7.982;2023-10-08T05:53:54;97546.25;;;18.74;51.09
48386;BME280;34644;47.964;7.982;2023-10-08T06:00:56;97550.78;;;18.73;51.14
48386;BME280;34644;47.964;7.982;2023-10-08T06:08:09;97551.84;;;18.72;51.03
48386;BME280;34644;47.964;7.982;2023-10-08T06:15:14;97546.25;;;18.74;50.79
48386;BME280;34644;47.964;7.982;2023-10-08T06:22:24;97556.13;;;18.73;50.77
48386;BME280;34644;47.964;7.982;2023-10-08T06:29:26;97557.72;;;18.74;50.78
48386;BME280;34644;47.964;7.982;2023-10-08T06:36:29;97562.28;;;18.74;50.97
48386;BME280;34644;47.964;7.982;2023-10-08T06:43:31;97573.22;;;18.72;50.92
48386;BME280;34644;47.964;7.982;2023-10-08T06:50:32;97579.09;;;18.74;51.04
48386;BME280;34644;47.964;7.982;2023-10-08T06:57:36;97594.13;;;18.33;49.18
48386;BME280;34644;47.964;7.982;2023-10-08T07:04:38;97612.34;;;17.98;48.75
48386;BME280;34644;47.964;7.982;2023-10-08T07:11:40;97607.41;;;17.85;49.22
48386;BME280;34644;47.964;7.982;2023-10-08T07:18:44;97616.34;;;17.63;50.22
48386;BME280;34644;47.964;7.982;2023-10-08T07:26:02;97617.44;;;17.72;50.09
48386;BME280;34644;47.964;7.982;2023-10-08T07:33:11;97613.91;;;17.94;50.02
48386;BME280;34644;47.964;7.982;2023-10-08T07:40:18;97614.78;;;18.05;50.22
48386;BME280;34644;47.964;7.982;2023-10-08T07:47:20;97607.91;;;18.14;49.79
48386;BME280;34644;47.964;7.982;2023-10-08T07:54:22;97605.03;;;18.26;49.77
48386;BME280;34644;47.964;7.982;2023-10-08T08:01:23;97617.88;;;18.34;50.14
48386;BME280;34644;47.964;7.982;2023-10-08T08:08:27;97615.78;;;18.41;50.40
48386;BME280;34644;47.964;7.982;2023-10-08T08:15:27;97623.88;;;18.52;50.17
48386;BME280;34644;47.964;7.982;2023-10-08T08:22:29;97614.53;;;18.59;50.37
48386;BME280;34644;47.964;7.982;2023-10-08T08:29:34;97612.69;;;18.60;50.84
48386;BME280;34644;47.964;7.982;2023-10-08T08:36:44;97615.88;;;18.62;50.91
48386;BME280;34644;47.964;7.982;2023-10-08T08:43:52;97612.44;;;18.67;51.03
48386;BME280;34644;47.964;7.982;2023-10-08T08:50:58;97621.28;;;18.72;51.31
48386;BME280;34644;47.964;7.982;2023-10-08T08:57:59;97611.41;;;18.73;51.59
48386;BME280;34644;47.964;7.982;2023-10-08T09:05:00;97607.94;;;18.72;52.54
48386;BME280;34644;47.964;7.982;2023-10-08T09:12:13;97614.59;;;18.80;53.39
48386;BME280;34644;47.964;7.982;2023-10-08T09:19:13;97611.16;;;18.79;53.72
48386;BME280;34644;47.964;7.982;2023-10-08T09:26:22;97620.78;;;18.80;52.88
48386;BME280;34644;47.964;7.982;2023-10-08T09:33:23;97620.78;;;18.80;53.56
48386;BME280;34644;47.964;7.982;2023-10-08T09:40:23;97620.25;;;18.84;51.92
48386;BME280;34644;47.964;7.982;2023-10-08T09:47:25;97623.47;;;18.86;53.71
48386;BME280;34644;47.964;7.982;2023-10-08T09:54:33;97627.78;;;18.87;54.70
48386;BME280;34644;47.964;7.982;2023-10-08T10:01:37;97634.19;;;18.91;55.17
48386;BME280;34644;47.964;7.982;2023-10-08T10:08:38;97647.53;;;18.91;53.86
48386;BME280;34644;47.964;7.982;2023-10-08T10:15:39;97647.53;;;18.91;52.98
48386;BME280;34644;47.964;7.982;2023-10-08T10:22:41;97649.94;;;18.92;52.61
48386;BME280;34644;47.964;7.982;2023-10-08T10:29:43;97649.16;;;18.92;51.39
48386;BME280;34644;47.964;7.982;2023-10-08T10:36:46;97659.84;;;18.92;52.20
48386;BME280;34644;47.964;7.982;2023-10-08T10:43:49;97661.97;;;18.95;52.44
48386;BME280;34644;47.964;7.982;2023-10-08T10:50:53;97670.00;;;18.95;52.67
48386;BME280;34644;47.964;7.982;2023-10-08T10:58:05;97680.69;;;18.95;52.85
48386;BME280;34644;47.964;7.982;2023-10-08T11:05:12;97679.88;;;18.94;52.71
48386;BME280;34644;47.964;7.982;2023-10-08T11:12:21;97681.22;;;18.97;52.54
48386;BME280;34644;47.964;7.982;2023-10-08T11:19:32;97661.72;;;18.96;52.71
48386;BME280;34644;47.964;7.982;2023-10-08T11:26:34;97653.19;;;19.00;52.71
48386;BME280;34644;47.964;7.982;2023-10-08T11:33:42;97648.91;;;18.98;52.95
48386;BME280;34644;47.964;7.982;2023-10-08T11:40:43;97650.22;;;18.96;52.98
48386;BME280;34644;47.964;7.982;2023-10-08T11:47:49;97638.22;;;18.98;52.73
48386;BME280;34644;47.964;7.982;2023-10-08T11:54:55;97636.06;;;19.01;53.01
48386;BME280;34644;47.964;7.982;2023-10-08T12:02:08;97624.59;;;19.00;53.22
48386;BME280;34644;47.964;7.982;2023-10-08T12:09:08;97634.50;;;19.00;53.07
48386;BME280;34644;47.964;7.982;2023-10-08T12:16:13;97624.34;;;19.02;53.21
48386;BME280;34644;47.964;7.982;2023-10-08T12:23:18;97609.66;;;19.04;53.37
48386;BME280;34644;47.964;7.982;2023-10-08T12:30:30;97601.91;;;19.03;53.34
48386;BME280;34644;47.964;7.982;2023-10-08T12:37:30;97592.00;;;19.03;53.26
48386;BME280;34644;47.964;7.982;2023-10-08T12:44:31;97591.75;;;19.05;53.38
48386;BME280;34644;47.964;7.982;2023-10-08T12:51:33;97584.25;;;19.07;53.19
48386;BME280;34644;47.964;7.982;2023-10-08T12:58:34;97575.19;;;19.08;53.45
48386;BME280;34644;47.964;7.982;2023-10-08T13:05:50;97565.56;;;19.07;53.66
48386;BME280;34644;47.964;7.982;2023-10-08T13:12:52;97561.03;;;19.07;53.48
48386;BME280;34644;47.964;7.982;2023-10-08T13:19:53;97562.63;;;19.08;53.17
48386;BME280;34644;47.964;7.982;2023-10-08T13:26:53;97570.38;;;19.10;53.37
48386;BME280;34644;47.964;7.982;2023-10-08T13:33:53;97567.44;;;19.11;53.57
48386;BME280;34644;47.964;7.982;2023-10-08T13:40:57;97565.59;;;19.12;53.60
48386;BME280;34644;47.964;7.982;2023-10-08T13:48:02;97553.03;;;19.12;53.75
48386;BME280;34644;47.964;7.982;2023-10-08T13:55:06;97549.31;;;19.13;53.71
48386;BME280;34644;47.964;7.982;2023-10-08T14:02:06;97550.09;;;19.14;53.68
48386;BME280;34644;47.964;7.982;2023-10-08T14:09:14;97539.94;;;19.16;53.63
48386;BME280;34644;47.964;7.982;2023-10-08T14:16:21;97530.34;;;19.15;53.67
48386;BME280;34644;47.964;7.982;2023-10-08T14:23:28;97523.09;;;19.15;53.80
48386;BME280;34644;47.964;7.982;2023-10-08T14:30:29;97512.41;;;19.15;53.41
48386;BME280;34644;47.964;7.982;2023-10-08T14:37:30;97511.38;;;19.16;53.62
48386;BME280;34644;47.964;7.982;2023-10-08T14:44:49;97503.34;;;19.16;53.62
48386;BME280;34644;47.964;7.982;2023-10-08T14:51:50;97506.81;;;19.17;53.74
48386;BME280;34644;47.964;7.982;2023-10-08T14:58:54;97504.13;;;19.17;53.59
48386;BME280;34644;47.964;7.982;2023-10-08T15:05:54;97496.38;;;19.15;53.55
48386;BME280;34644;47.964;7.982;2023-10-08T15:12:56;97491.56;;;19.17;53.96
48386;BME280;34644;47.964;7.982;2023-10-08T15:19:58;97498.53;;;19.19;53.88
48386;BME280;34644;47.964;7.982;2023-10-08T15:27:00;97494.75;;;19.20;53.79
48386;BME280;34644;47.964;7.982;2023-10-08T15:34:00;97502.00;;;19.19;53.62
48386;BME280;34644;47.964;7.982;2023-10-08T15:41:04;97500.09;;;19.20;53.62
48386;BME280;34644;47.964;7.982;2023-10-08T15:48:05;97500.09;;;19.20;53.55
48386;BME280;34644;47.964;7.982;2023-10-08T15:55:06;97505.47;;;19.20;53.84
48386;BME280;34644;47.964;7.982;2023-10-08T16:02:07;97502.78;;;19.20;53.59
48386;BME280;34644;47.964;7.982;2023-10-08T16:09:08;97499.31;;;19.19;53.81
48386;BME280;34644;47.964;7.982;2023-10-08T16:16:09;97499.31;;;19.19;54.79
48386;BME280;34644;47.964;7.982;2023-10-08T16:23:11;97507.59;;;19.23;52.69
48386;BME280;34644;47.964;7.982;2023-10-08T16:30:12;97502.50;;;19.21;52.58
48386;BME280;34644;47.964;7.982;2023-10-08T16:37:16;97505.47;;;19.20;52.16
48386;BME280;34644;47.964;7.982;2023-10-08T16:44:21;97510.78;;;19.20;52.29
48386;BME280;34644;47.964;7.982;2023-10-08T16:51:22;97518.03;;;19.19;51.70
48386;BME280;34644;47.964;7.982;2023-10-08T16:58:22;97520.44;;;19.21;50.93
48386;BME280;34644;47.964;7.982;2023-10-08T17:05:23;97527.91;;;19.19;51.66
48386;BME280;34644;47.964;7.982;2023-10-08T17:12:23;97525.25;;;19.19;51.15
48386;BME280;34644;47.964;7.982;2023-10-08T17:19:25;97532.19;;;19.20;51.27
48386;BME280;34644;47.964;7.982;2023-10-08T17:26:26;97536.72;;;19.19;51.12
48386;BME280;34644;47.964;7.982;2023-10-08T17:33:26;97532.19;;;19.20;51.97
48386;BME280;34644;47.964;7.982;2023-10-08T17:40:31;97535.13;;;19.18;51.86
48386;BME280;34644;47.964;7.982;2023-10-08T17:47:31;97527.91;;;19.19;51.64
48386;BME280;34644;47.964;7.982;2023-10-08T17:54:32;97536.72;;;19.19;51.55
48386;BME280;34644;47.964;7.982;2023-10-08T18:01:37;97529.78;;;19.18;51.39
48386;BME280;34644;47.964;7.982;2023-10-08T18:08:40;97527.91;;;19.19;51.31
48386;BME280;34644;47.964;7.982;2023-10-08T18:15:42;97519.38;;;19.16;51.15
48386;BME280;34644;47.964;7.982;2023-10-08T18:22:42;97514.56;;;19.19;51.10
48386;BME280;34644;47.964;7.982;2023-10-08T18:29:43;97523.63;;;19.17;51.57
48386;BME280;34644;47.964;7.982;2023-10-08T18:36:43;97519.09;;;19.18;51.48
48386;BME280;34644;47.964;7.982;2023-10-08T18:43:44;97512.94;;;19.17;51.64
48386;BME280;34644;47.964;7.982;2023-10-08T18:50:44;97504.66;;;19.19;51.70
48386;BME280;34644;47.964;7.982;2023-10-08T18:57:46;97511.06;;;19.18;51.34
48386;BME280;34644;47.964;7.982;2023-10-08T19:04:51;97509.22;;;19.19;51.55
48386;BME280;34644;47.964;7.982;2023-10-08T19:11:53;97507.59;;;19.17;51.31
48386;BME280;34644;47.964;7.982;2023-10-08T19:18:55;97491.03;;;19.15;50.84
48386;BME280;34644;47.964;7.982;2023-10-08T19:25:55;97500.69;;;19.16;51.21
48386;BME280;34644;47.964;7.982;2023-10-08T19:32:56;97493.44;;;19.17;50.94
48386;BME280;34644;47.964;7.982;2023-10-08T19:39:57;97485.69;;;19.15;50.97
48386;BME280;34644;47.964;7.982;2023-10-08T19:46:58;97489.69;;;19.13;49.95
48386;BME280;34644;47.964;7.982;2023-10-08T19:54:01;97491.56;;;19.12;49.77
48386;BME280;34644;47.964;7.982;2023-10-08T20:01:01;97486.75;;;19.14;50.73
48386;BME280;34644;47.964;7.982;2023-10-08T20:08:02;97485.44;;;19.12;51.05
48386;BME280;34644;47.964;7.982;2023-10-08T20:15:03;97473.94;;;19.11;50.94
48386;BME280;34644;47.964;7.982;2023-10-08T20:22:03;97479.28;;;19.11;50.43
48386;BME280;34644;47.964;7.982;2023-10-08T20:29:04;97487.28;;;19.11;49.43
48386;BME280;34644;47.964;7.982;2023-10-08T20:36:04;97487.81;;;19.08;49.76
48386;BME280;34644;47.964;7.982;2023-10-08T20:43:05;97482.47;;;19.08;50.15
48386;BME280;34644;47.964;7.982;2023-10-08T20:50:06;97484.63;;;19.11;51.18
48386;BME280;34644;47.964;7.982;2023-10-08T20:57:13;97482.47;;;19.08;50.70
48386;BME280;34644;47.964;7.982;2023-10-08T21:04:13;97488.66;;;19.09;51.35
48386;BME280;34644;47.964;7.982;2023-10-08T21:11:13;97479.56;;;19.00;51.97
48386;BME280;34644;47.964;7.982;2023-10-08T21:18:14;97475.00;;;19.00;53.17
48386;BME280;34644;47.964;7.982;2023-10-08T21:25:15;97472.31;;;19.05;52.60
48386;BME280;34644;47.964;7.982;2023-10-08T21:32:22;97457.13;;;19.06;53.07
48386;BME280;34644;47.964;7.982;2023-10-08T21:39:22;97459.53;;;19.07;53.39
48386;BME280;34644;47.964;7.982;2023-10-08T21:46:23;97448.84;;;19.07;53.69
48386;BME280;34644;47.964;7.982;2023-10-08T21:53:24;97453.91;;;19.09;53.60
48386;BME280;34644;47.964;7.982;2023-10-08T22:00:25;97438.16;;;19.07;53.51
48386;BME280;34644;47.964;7.982;2023-10-08T22:07:25;97434.38;;;19.08;53.47
48386;BME280;34644;47.964;7.982;2023-10-08T22:14:26;97434.66;;;19.07;53.86
48386;BME280;34644;47.964;7.982;2023-10-08T22:21:27;97430.41;;;19.06;52.34
48386;BME280;34644;47.964;7.982;2023-10-08T22:28:29;97420.50;;;19.06;52.81
48386;BME280;34644;47.964;7.982;2023-10-08T22:35:34;97424.78;;;19.07;53.36
48386;BME280;34644;47.964;7.982;2023-10-08T22:42:34;97409.03;;;19.06;52.82
48386;BME280;34644;47.964;7.982;2023-10-08T22:49:38;97405.28;;;19.07;53.44
48386;BME280;34644;47.964;7.982;2023-10-08T22:56:42;97394.59;;;19.07;53.16
48386;BME280;34644;47.964;7.982;2023-10-08T23:03:42;97387.09;;;19.04;52.33
48386;BME280;34644;47.964;7.982;2023-10-08T23:10:43;97377.25;;;19.04;52.03
48386;BME280;34644;47.964;7.982;2023-10-08T23:17:45;97374.84;;;19.03;52.33
48386;BME280;34644;47.964;7.982;2023-10-08T23:24:45;97376.69;;;19.02;52.15
48386;BME280;34644;47.964;7.982;2023-10-08T23:31:45;97372.44;;;19.01;51.92
48386;BME280;34644;47.964;7.982;2023-10-08T23:38:48;97371.63;;;19.01;51.65
48386;BME280;34644;47.964;7.982;2023-10-08T23:45:52;97365.47;;;19.00;52.23
48386;BME280;34644;47.964;7.982;2023-10-08T23:52:58;97365.75;;;18.98;52.34
